Time;durP1;ratioP1;P1;durP2;ratioP2;P2;SDS_P1;SDS_P2;PMS_P1;PMS_P2;Temp;Humidity;BMP_temperature;BMP_pressure;BME280_temperature;BME280_humidity;BME280_pressure;Samples;Min_cycle;Max_cycle;Signal;HPM_P1;HPM_P2
2022/11/19 00:00:45;;;;;;;25.58;9.50;;;1.60;99.90;;;;;;5115567;28;20039;-75
2022/11/19 00:03:13;;;;;;;23.50;9.45;;;1.60;99.90;;;;;;5098722;28;20420;-75
2022/11/19 00:05:43;;;;;;;26.40;9.70;;;1.60;99.90;;;;;;5097573;28;20054;-73
2022/11/19 00:08:11;;;;;;;25.33;9.63;;;1.60;99.90;;;;;;5097807;28;20508;-77
2022/11/19 00:10:38;;;;;;;25.52;10.15;;;1.60;99.90;;;;;;5115372;28;20395;-77
2022/11/19 00:13:05;;;;;;;;;;;1.60;99.90;;;;;;5115638;28;20049;-74
2022/11/19 00:15:33;;;;;;;25.17;9.20;;;1.60;99.90;;;;;;5097070;28;19920;-76
2022/11/19 00:17:59;;;;;;;21.63;8.07;;;1.60;99.90;;;;;;5114872;28;20043;-77
2022/11/19 00:20:26;;;;;;;24.85;9.60;;;1.60;99.90;;;;;;5114929;28;20092;-77
2022/11/19 00:22:53;;;;;;;21.42;8.00;;;1.60;99.90;;;;;;5113486;28;20086;-76
2022/11/19 00:25:24;;;;;;;25.58;9.57;;;1.70;99.90;;;;;;5113363;28;20535;-76
2022/11/19 00:27:51;;;;;;;22.48;8.45;;;1.60;99.90;;;;;;5115149;28;20422;-77
2022/11/19 00:30:18;;;;;;;22.27;8.65;;;1.60;99.90;;;;;;5123596;27;20527;-74
2022/11/19 00:32:44;;;;;;;21.50;8.18;;;1.70;99.90;;;;;;5117541;27;20393;-77
2022/11/19 00:35:10;;;;;;;22.00;8.77;;;1.70;99.90;;;;;;5117480;27;20155;-77
2022/11/19 00:37:36;;;;;;;18.45;6.32;;;1.70;99.90;;;;;;5116784;27;20090;-78
2022/11/19 00:40:04;;;;;;;23.17;8.23;;;1.70;99.90;;;;;;5135088;27;20126;-77
2022/11/19 00:42:30;;;;;;;25.92;9.48;;;1.70;99.90;;;;;;5134993;27;20090;-75
2022/11/19 00:44:55;;;;;;;24.83;9.02;;;1.70;99.90;;;;;;5135034;27;20082;-76
2022/11/19 00:47:21;;;;;;;23.05;9.75;;;1.60;99.90;;;;;;5134355;27;20595;-75
2022/11/19 00:49:47;;;;;;;21.77;8.95;;;1.60;99.90;;;;;;5116236;27;20054;-75
2022/11/19 00:52:13;;;;;;;19.63;7.50;;;1.60;99.90;;;;;;5116207;27;20047;-74
2022/11/19 00:54:38;;;;;;;19.50;6.13;;;1.60;99.90;;;;;;5134509;27;20161;-76
2022/11/19 00:57:04;;;;;;;24.05;8.38;;;1.60;99.90;;;;;;5133975;27;20043;-74
2022/11/19 00:59:30;;;;;;;21.23;8.45;;;1.70;99.90;;;;;;5134360;27;20132;-76
2022/11/19 01:01:56;;;;;;;20.30;8.27;;;1.60;99.90;;;;;;5134731;27;20096;-75
2022/11/19 01:04:21;;;;;;;19.42;7.28;;;1.60;99.90;;;;;;5116228;27;20087;-75
2022/11/19 01:06:47;;;;;;;19.00;8.10;;;1.60;99.90;;;;;;5134062;27;20078;-75
2022/11/19 01:09:13;;;;;;;22.60;7.95;;;1.60;99.90;;;;;;5134342;27;20080;-75
2022/11/19 01:11:39;;;;;;;22.02;7.93;;;1.50;99.90;;;;;;5115866;27;20073;-76
2022/11/19 01:14:05;;;;;;;16.25;5.25;;;1.50;99.90;;;;;;5134013;27;20051;-75
2022/11/19 01:16:35;;;;;;;16.73;6.63;;;1.50;99.90;;;;;;5099168;27;20133;-78
2022/11/19 01:19:00;;;;;;;20.92;6.40;;;1.50;99.90;;;;;;5134172;27;20043;-75
2022/11/19 01:21:29;;;;;;;18.75;6.95;;;1.50;99.90;;;;;;5134319;27;20047;-73
2022/11/19 01:23:56;;;;;;;16.23;6.47;;;1.50;99.90;;;;;;5134316;27;20044;-75
2022/11/19 01:26:22;;;;;;;17.50;6.65;;;1.50;99.90;;;;;;5099726;27;20103;-73
2022/11/19 01:28:48;;;;;;;18.20;6.72;;;1.40;99.90;;;;;;5115570;27;20051;-76
2022/11/19 01:31:17;;;;;;;16.85;5.90;;;1.40;99.90;;;;;;5115377;27;20134;-76
2022/11/19 01:33:44;;;;;;;16.90;6.43;;;1.50;99.90;;;;;;5116198;27;20047;-75
2022/11/19 01:36:16;;;;;;;13.15;5.30;;;1.40;99.90;;;;;;5116030;27;20095;-73
2022/11/19 01:38:42;;;;;;;14.15;5.07;;;1.50;99.90;;;;;;5133731;27;20041;-77
2022/11/19 01:41:08;;;;;;;13.23;5.50;;;1.40;99.90;;;;;;5133955;27;20035;-76
2022/11/19 01:44:01;;;;;;;16.60;5.75;;;1.40;99.90;;;;;;5134366;27;20042;-74
2022/11/19 01:46:29;;;;;;;15.02;5.63;;;1.30;99.90;;;;;;5134232;27;20131;-75
2022/11/19 01:49:15;;;;;;;16.25;5.30;;;1.30;99.90;;;;;;5115382;27;20112;-74
2022/11/19 01:51:53;;;;;;;14.10;5.70;;;1.30;99.90;;;;;;5134327;27;20047;-74
2022/11/19 01:54:25;;;;;;;12.73;4.60;;;1.30;99.90;;;;;;5116177;27;20175;-75
2022/11/19 01:56:53;;;;;;;12.98;4.72;;;1.20;99.90;;;;;;5133661;27;20049;-74
2022/11/19 01:59:19;;;;;;;12.93;4.93;;;1.30;99.90;;;;;;5115957;28;20047;-78
2022/11/19 02:01:45;;;;;;;11.23;3.83;;;1.30;99.90;;;;;;5134659;28;20120;-79
2022/11/19 02:04:13;;;;;;;13.60;4.72;;;1.30;99.90;;;;;;5117079;28;20047;-82
2022/11/19 02:06:41;;;;;;;10.00;3.80;;;1.30;99.90;;;;;;5135158;28;20122;-81
2022/11/19 02:09:06;;;;;;;12.18;3.72;;;1.30;99.90;;;;;;5099765;28;20058;-79
2022/11/19 02:11:58;;;;;;;10.45;3.67;;;1.30;99.90;;;;;;5116352;28;20039;-79
2022/11/19 02:14:34;;;;;;;11.68;4.00;;;1.20;99.90;;;;;;5119887;28;20050;-81
2022/11/19 02:17:19;;;;;;;11.15;3.75;;;1.30;99.90;;;;;;5134946;28;20061;-82
2022/11/19 02:20:11;;;;;;;10.10;3.85;;;1.20;99.90;;;;;;5138718;27;20051;-77
2022/11/19 02:23:05;;;;;;;9.55;3.65;;;1.20;99.90;;;;;;5120124;27;20043;-80
2022/11/19 02:25:56;;;;;;;8.30;2.45;;;1.20;99.90;;;;;;5120867;27;20054;-78
2022/11/19 02:28:29;;;;;;;10.63;3.60;;;1.20;99.90;;;;;;5139832;27;20118;-79
2022/11/19 02:31:05;;;;;;;11.23;3.55;;;1.10;99.90;;;;;;5141521;27;20094;-81
2022/11/19 02:33:46;;;;;;;10.80;3.97;;;1.10;99.90;;;;;;5126741;27;20050;-79
2022/11/19 02:36:32;;;;;;;10.38;3.40;;;1.10;99.90;;;;;;5143603;27;20047;-79
2022/11/19 02:39:13;;;;;;;8.98;3.03;;;1.10;99.90;;;;;;5140230;27;20492;-79
2022/11/19 02:41:47;;;;;;;9.63;3.78;;;1.00;99.90;;;;;;5139130;27;20054;-77
2022/11/19 02:44:57;;;;;;;10.90;3.40;;;1.00;99.90;;;;;;5138364;27;20050;-78
2022/11/19 02:47:29;;;;;;;10.20;3.72;;;0.90;99.90;;;;;;5109083;27;20105;-78
2022/11/19 02:50:09;;;;;;;9.18;3.50;;;0.90;99.90;;;;;;5121278;27;20459;-78
2022/11/19 02:52:38;;;;;;;8.25;2.65;;;0.90;99.90;;;;;;5139962;27;20371;-78
2022/11/19 02:55:04;;;;;;;9.38;3.13;;;0.80;99.90;;;;;;5103521;27;20047;-80
2022/11/19 02:57:30;;;;;;;7.22;1.98;;;0.80;99.90;;;;;;5119846;27;20124;-78
2022/11/19 03:06:06;;;;;;;15.02;3.47;;;0.60;99.90;;;;;;5119287;27;20447;-78
2022/11/19 03:08:32;;;;;;;9.40;3.40;;;0.50;99.90;;;;;;5138142;27;20095;-78
2022/11/19 03:11:12;;;;;;;11.63;3.25;;;0.50;99.90;;;;;;5137155;27;20039;-78
2022/11/19 03:17:13;;;;;;;8.02;1.95;;;0.40;99.90;;;;;;5137003;27;20428;-80
2022/11/19 03:19:49;;;;;;;7.70;2.88;;;0.40;99.90;;;;;;5067309;27;20093;-78
2022/11/19 03:22:26;;;;;;;13.23;3.45;;;0.30;99.90;;;;;;5119178;27;20051;-78
2022/11/19 03:25:06;;;;;;;10.13;3.08;;;0.30;99.90;;;;;;5138209;27;20158;-78
2022/11/19 03:27:37;;;;;;;11.95;3.78;;;0.20;99.90;;;;;;5119632;27;20043;-81
2022/11/19 03:30:06;;;;;;;9.82;3.45;;;0.20;99.90;;;;;;5136681;27;20437;-79
2022/11/19 03:32:55;;;;;;;7.70;3.00;;;0.20;99.90;;;;;;5137243;27;20055;-79
2022/11/19 03:35:36;;;;;;;9.38;3.38;;;0.10;99.90;;;;;;5119178;27;20057;-81
2022/11/19 03:38:07;;;;;;;7.80;2.38;;;0.10;99.90;;;;;;5102249;27;20079;-77
2022/11/19 03:40:34;;;;;;;8.43;2.65;;;0.10;99.90;;;;;;5101624;27;20075;-80
2022/11/19 03:43:04;;;;;;;12.77;3.55;;;0.10;99.90;;;;;;5136348;27;20031;-77
2022/11/19 03:45:38;;;;;;;11.65;4.00;;;0.00;99.90;;;;;;5118208;27;20047;-78
2022/11/19 03:48:05;;;;;;;8.23;3.47;;;0.00;99.90;;;;;;5136822;27;20067;-78
2022/11/19 03:50:45;;;;;;;13.38;4.40;;;0.00;99.90;;;;;;5118491;27;20085;-78
2022/11/19 03:53:11;;;;;;;11.25;3.67;;;-0.10;99.90;;;;;;5118375;27;20059;-78
2022/11/19 03:56:05;;;;;;;9.00;3.33;;;-0.10;99.90;;;;;;5136570;27;20047;-77
2022/11/19 03:58:38;;;;;;;10.38;3.83;;;-0.10;99.90;;;;;;5136145;27;20047;-79
2022/11/19 04:01:03;;;;;;;8.80;3.22;;;-0.20;99.90;;;;;;5101767;27;20051;-80
2022/11/19 04:03:29;;;;;;;9.65;3.30;;;-0.20;99.90;;;;;;5136002;27;20356;-79
2022/11/19 04:05:55;;;;;;;9.80;3.45;;;-0.20;99.90;;;;;;5118442;27;20119;-77
2022/11/19 04:08:22;;;;;;;10.70;3.85;;;-0.20;99.90;;;;;;5136366;27;20119;-79
2022/11/19 04:10:48;;;;;;;10.85;3.50;;;-0.30;99.90;;;;;;5118667;27;20137;-79
2022/11/19 04:13:13;;;;;;;10.52;3.72;;;-0.40;99.90;;;;;;5117877;27;20086;-78
2022/11/19 04:15:39;;;;;;;9.38;4.22;;;-0.40;99.90;;;;;;5101732;27;20043;-77
2022/11/19 04:18:05;;;;;;;6.65;1.85;;;-0.40;99.90;;;;;;5117877;27;20483;-77
2022/11/19 04:20:30;;;;;;;12.75;4.25;;;-0.40;99.90;;;;;;5135991;27;20057;-77
2022/11/19 04:22:56;;;;;;;9.32;3.50;;;-0.40;99.90;;;;;;5136378;27;20060;-80
2022/11/19 04:25:22;;;;;;;11.10;3.90;;;-0.40;99.90;;;;;;5140729;27;20050;-76
2022/11/19 04:27:47;;;;;;;14.05;4.75;;;-0.50;99.90;;;;;;5142646;27;20050;-77
2022/11/19 04:30:14;;;;;;;10.25;3.90;;;-0.50;99.90;;;;;;5151880;27;20084;-80
2022/11/19 04:32:40;;;;;;;11.80;3.92;;;-0.60;99.90;;;;;;5124874;27;20333;-78
2022/11/19 04:35:06;;;;;;;9.13;3.60;;;-0.60;99.90;;;;;;5118015;27;20348;-79
2022/11/19 04:37:32;;;;;;;8.73;2.92;;;-0.60;99.90;;;;;;5117169;27;20086;-79
2022/11/19 04:39:57;;;;;;;12.50;3.95;;;-0.70;99.90;;;;;;5135875;27;20079;-81
2022/11/19 04:42:23;;;;;;;11.38;4.10;;;-0.70;99.90;;;;;;5116111;27;20038;-81
2022/11/19 04:44:49;;;;;;;6.35;2.15;;;-0.70;99.90;;;;;;5136497;27;20057;-83
2022/11/19 04:47:14;;;;;;;9.32;3.28;;;-0.70;99.90;;;;;;5118531;27;20072;-81
2022/11/19 04:49:40;;;;;;;12.00;4.22;;;-0.70;99.90;;;;;;5117741;27;20130;-81
2022/11/19 04:52:06;;;;;;;12.20;3.65;;;-0.80;99.90;;;;;;5118187;27;20047;-79
2022/11/19 04:54:31;;;;;;;10.30;4.13;;;-0.80;99.90;;;;;;5117863;27;20035;-80
2022/11/19 04:56:57;;;;;;;9.20;3.13;;;-0.80;99.90;;;;;;5117239;27;20122;-80
2022/11/19 04:59:23;;;;;;;8.98;3.28;;;-0.90;99.90;;;;;;5117988;27;20042;-81
2022/11/19 05:01:48;;;;;;;8.88;2.80;;;-0.90;99.90;;;;;;5118502;27;20046;-78
2022/11/19 05:04:14;;;;;;;10.73;3.97;;;-0.80;99.90;;;;;;5135091;27;20065;-76
2022/11/19 05:06:40;;;;;;;9.02;2.83;;;-0.80;99.90;;;;;;5118133;27;20047;-79
2022/11/19 05:09:06;;;;;;;9.48;3.55;;;-0.90;99.90;;;;;;5135707;27;20475;-75
2022/11/19 05:11:32;;;;;;;11.80;2.83;;;-0.90;99.90;;;;;;5135652;27;20540;-75
2022/11/19 05:13:57;;;;;;;11.30;4.03;;;-0.90;99.90;;;;;;5116770;27;20084;-79
2022/11/19 05:16:23;;;;;;;11.02;3.38;;;-0.90;99.90;;;;;;5134299;27;20454;-79
2022/11/19 05:18:48;;;;;;;10.80;3.70;;;-0.90;99.90;;;;;;5135409;27;20043;-79
2022/11/19 05:21:14;;;;;;;11.98;4.35;;;-1.00;99.90;;;;;;5117363;27;20082;-79
2022/11/19 05:23:40;;;;;;;10.30;3.50;;;-1.00;99.90;;;;;;5135275;27;20444;-79
2022/11/19 05:26:06;;;;;;;12.25;4.07;;;-1.10;99.90;;;;;;5133766;27;20099;-78
2022/11/19 05:28:32;;;;;;;9.80;4.45;;;-1.00;99.90;;;;;;5135156;27;20039;-77
2022/11/19 05:30:58;;;;;;;7.90;2.17;;;-1.00;99.90;;;;;;5117094;27;20062;-77
2022/11/19 05:33:24;;;;;;;11.98;4.20;;;-1.10;99.90;;;;;;5099959;27;20067;-78
2022/11/19 05:35:53;;;;;;;7.97;2.92;;;-1.00;99.90;;;;;;5120000;27;20054;-78
2022/11/19 05:38:18;;;;;;;11.70;3.80;;;-1.10;99.90;;;;;;5139424;27;20053;-79
2022/11/19 05:40:44;;;;;;;9.13;3.30;;;-1.10;99.90;;;;;;5136002;27;20499;-78
2022/11/19 05:43:11;;;;;;;6.93;3.03;;;-1.00;99.90;;;;;;5136389;27;20039;-77
2022/11/19 05:45:37;;;;;;;8.82;2.53;;;-1.10;99.90;;;;;;5135206;27;20039;-81
2022/11/19 05:48:04;;;;;;;11.27;3.58;;;-1.10;99.90;;;;;;5136060;27;20066;-80
2022/11/19 05:50:29;;;;;;;8.52;3.17;;;-1.10;99.90;;;;;;5135962;27;20127;-78
2022/11/19 05:52:57;;;;;;;10.68;4.03;;;-1.10;99.90;;;;;;5115407;27;20486;-78
2022/11/19 05:55:23;;;;;;;11.93;4.38;;;-1.30;99.90;;;;;;5099468;27;20039;-78
2022/11/19 05:57:48;;;;;;;9.30;3.22;;;-1.30;99.90;;;;;;5134621;27;20100;-81
2022/11/19 06:00:16;;;;;;;12.63;4.72;;;-1.30;99.90;;;;;;5116468;28;20126;-78
2022/11/19 06:02:42;;;;;;;10.63;4.47;;;-1.30;99.90;;;;;;5098801;28;20047;-78
2022/11/19 06:05:08;;;;;;;13.32;4.60;;;-1.30;99.90;;;;;;5134525;28;20051;-78
2022/11/19 06:07:34;;;;;;;10.52;4.15;;;-1.30;99.90;;;;;;5116853;28;20043;-78
2022/11/19 06:09:59;;;;;;;12.43;4.80;;;-1.30;99.90;;;;;;5100682;28;20126;-80
2022/11/19 06:12:25;;;;;;;11.15;4.55;;;-1.30;99.90;;;;;;5102509;28;20039;-77
2022/11/19 06:14:51;;;;;;;8.82;3.25;;;-1.30;99.90;;;;;;5104411;28;20146;-78
2022/11/19 06:17:16;;;;;;;9.57;3.13;;;-1.20;99.90;;;;;;5119804;28;20055;-79
2022/11/19 06:19:42;;;;;;;12.63;4.93;;;-1.20;99.90;;;;;;5100631;28;20047;-77
2022/11/19 06:22:09;;;;;;;12.25;4.00;;;-1.20;99.90;;;;;;5133272;28;20078;-78
2022/11/19 06:24:35;;;;;;;13.40;4.70;;;-1.20;99.90;;;;;;5115638;28;20035;-81
2022/11/19 06:27:00;;;;;;;14.45;5.55;;;-1.30;99.90;;;;;;5134534;28;20099;-79
2022/11/19 06:29:26;;;;;;;12.00;4.07;;;-1.30;99.90;;;;;;5117485;28;20451;-77
2022/11/19 06:31:52;;;;;;;13.77;5.13;;;-1.30;99.90;;;;;;5135766;28;20050;-77
2022/11/19 06:34:18;;;;;;;14.35;5.35;;;-1.30;99.90;;;;;;5080307;28;20136;-77
2022/11/19 06:36:43;;;;;;;11.13;4.18;;;-1.30;99.90;;;;;;5114042;28;20059;-79
2022/11/19 06:39:09;;;;;;;13.98;4.68;;;-1.40;99.90;;;;;;5115511;28;20500;-79
2022/11/19 06:41:35;;;;;;;15.07;5.55;;;-1.40;99.90;;;;;;5114753;28;20040;-76
2022/11/19 06:44:02;;;;;;;11.77;4.43;;;-1.50;99.90;;;;;;5115175;28;20047;-79
2022/11/19 06:46:27;;;;;;;9.52;3.65;;;-1.40;99.90;;;;;;5114398;28;20547;-81
2022/11/19 06:48:53;;;;;;;15.55;5.93;;;-1.30;99.90;;;;;;5115378;28;20083;-78
2022/11/19 06:51:19;;;;;;;15.80;6.00;;;-1.40;99.90;;;;;;5115890;28;20072;-77
2022/11/19 06:53:44;;;;;;;14.63;5.68;;;-1.40;99.90;;;;;;5115904;28;20043;-77
2022/11/19 06:56:10;;;;;;;15.32;7.05;;;-1.40;99.90;;;;;;5119121;28;20132;-79
2022/11/19 06:58:36;;;;;;;16.50;6.57;;;-1.50;99.90;;;;;;5116648;28;20100;-80
2022/11/19 07:01:02;;;;;;;15.93;5.85;;;-1.50;99.90;;;;;;5115733;28;20048;-78
2022/11/19 07:03:28;;;;;;;12.20;4.72;;;-1.60;99.90;;;;;;5114745;28;20055;-79
2022/11/19 07:05:58;;;;;;;16.58;6.10;;;-1.60;99.90;;;;;;5118280;28;20039;-79
2022/11/19 07:08:23;;;;;;;14.55;5.93;;;-1.60;99.90;;;;;;5120384;27;20055;-81
2022/11/19 07:10:49;;;;;;;16.45;5.82;;;-1.60;99.90;;;;;;5118183;28;20047;-79
2022/11/19 07:13:15;;;;;;;16.80;6.38;;;-1.60;99.90;;;;;;5120000;28;20050;-77
2022/11/19 07:15:42;;;;;;;9.50;3.15;;;-1.50;99.90;;;;;;5124216;28;20099;-79
2022/11/19 07:18:07;;;;;;;15.00;5.87;;;-1.50;99.90;;;;;;5143371;27;20047;-79
2022/11/19 07:20:33;;;;;;;13.25;5.35;;;-1.50;99.90;;;;;;5134824;28;20126;-80
2022/11/19 07:22:59;;;;;;;13.98;5.32;;;-1.50;99.90;;;;;;5126627;28;20075;-79
2022/11/19 07:25:25;;;;;;;11.02;3.75;;;-1.40;99.90;;;;;;5119796;28;20416;-81
2022/11/19 07:27:50;;;;;;;13.48;5.32;;;-1.40;99.90;;;;;;5118957;28;20096;-79
2022/11/19 07:30:17;;;;;;;17.55;6.70;;;-1.40;99.90;;;;;;5118363;28;20062;-77
2022/11/19 07:32:42;;;;;;;17.67;6.10;;;-1.40;99.90;;;;;;5099411;28;20043;-81
2022/11/19 07:35:09;;;;;;;11.13;4.22;;;-1.40;99.90;;;;;;5116770;28;20131;-77
2022/11/19 07:37:35;;;;;;;16.35;5.93;;;-1.30;99.90;;;;;;5117977;28;20079;-77
2022/11/19 07:40:02;;;;;;;15.55;5.70;;;-1.30;99.90;;;;;;5117393;28;20044;-78
2022/11/19 07:45:12;;;;;;;16.05;6.32;;;-1.40;99.90;;;;;;5117011;28;20090;-80
2022/11/19 07:47:37;;;;;;;10.82;3.97;;;-1.30;99.90;;;;;;5118283;28;20039;-79
2022/11/19 07:50:04;;;;;;;12.05;4.43;;;-1.30;99.90;;;;;;5117263;28;20524;-79
2022/11/19 07:52:30;;;;;;;11.02;4.38;;;-1.20;99.90;;;;;;5118141;28;20078;-80
2022/11/19 07:54:56;;;;;;;14.30;5.20;;;-1.20;99.90;;;;;;5119834;28;20075;-77
2022/11/19 07:57:25;;;;;;;14.50;5.20;;;-1.20;99.90;;;;;;5117591;28;20043;-75
2022/11/19 07:59:50;;;;;;;15.02;4.80;;;-1.10;99.90;;;;;;5118671;28;20063;-78
2022/11/19 08:02:16;;;;;;;16.38;4.93;;;-1.10;99.90;;;;;;5117047;28;20052;-79
2022/11/19 08:04:42;;;;;;;12.50;4.80;;;-1.10;99.90;;;;;;5100296;28;20075;-80
2022/11/19 08:07:07;;;;;;;12.43;3.40;;;-1.00;99.90;;;;;;5115024;28;20373;-78
2022/11/19 08:09:33;;;;;;;13.38;5.38;;;-1.00;99.90;;;;;;5116318;28;20047;-78
2022/11/19 08:11:59;;;;;;;14.90;5.75;;;-1.00;99.90;;;;;;5117529;27;20050;-81
2022/11/19 08:14:25;;;;;;;15.38;5.53;;;-1.00;99.90;;;;;;5116975;28;20043;-75
2022/11/19 08:19:36;;;;;;;16.00;5.47;;;-0.90;99.90;;;;;;5118867;28;20537;-80
2022/11/19 08:22:01;;;;;;;13.43;5.25;;;-0.90;99.90;;;;;;5115196;28;20078;-80
2022/11/19 08:24:27;;;;;;;11.93;4.65;;;-0.80;99.90;;;;;;5131940;27;20047;-80
2022/11/19 08:26:53;;;;;;;13.20;4.78;;;-0.90;99.90;;;;;;5116356;28;20048;-80
2022/11/19 08:29:22;;;;;;;11.52;4.68;;;-0.80;99.90;;;;;;5114872;28;20044;-82
2022/11/19 08:31:49;;;;;;;13.98;5.00;;;-0.80;99.90;;;;;;5117598;28;20051;-82
2022/11/19 08:34:15;;;;;;;13.70;5.43;;;-0.80;99.90;;;;;;5135271;27;20055;-79
2022/11/19 08:36:41;;;;;;;14.45;4.75;;;-0.80;99.90;;;;;;5117782;27;20051;-77
2022/11/19 08:39:08;;;;;;;13.43;5.22;;;-0.80;99.90;;;;;;5136489;27;20054;-78
2022/11/19 08:44:18;;;;;;;11.68;4.18;;;-0.70;99.90;;;;;;5152516;27;20102;-77
2022/11/19 08:46:44;;;;;;;15.88;5.43;;;-0.70;99.90;;;;;;5120455;27;20128;-80
2022/11/19 08:49:10;;;;;;;12.30;4.72;;;-0.60;99.90;;;;;;5145085;27;20043;-85
2022/11/19 08:51:37;;;;;;;13.52;4.97;;;-0.60;99.90;;;;;;5121446;27;20043;-82
2022/11/19 08:54:03;;;;;;;12.23;4.82;;;-0.60;99.90;;;;;;5138762;27;20490;-85
2022/11/19 08:56:30;;;;;;;13.65;4.95;;;-0.50;99.90;;;;;;5138530;27;20043;-78
2022/11/19 08:58:56;;;;;;;12.10;4.88;;;-0.50;99.90;;;;;;5121359;27;20051;-84
2022/11/19 09:01:22;;;;;;;12.63;4.60;;;-0.50;99.90;;;;;;5140333;27;20504;-83
2022/11/19 09:03:48;;;;;;;13.20;5.05;;;-0.40;99.90;;;;;;5138309;27;20402;-83
2022/11/19 09:06:14;;;;;;;13.23;5.45;;;-0.40;99.90;;;;;;5085468;27;20047;-82
2022/11/19 09:08:40;;;;;;;13.25;5.30;;;-0.40;99.90;;;;;;5119243;27;20107;-83
2022/11/19 09:11:10;;;;;;;11.32;4.78;;;-0.40;99.90;;;;;;5103055;27;20043;-83
2022/11/19 09:13:37;;;;;;;11.65;5.32;;;-0.30;99.90;;;;;;5102940;27;20043;-85
2022/11/19 09:16:03;;;;;;;11.27;2.97;;;-0.30;99.90;;;;;;5137510;27;20039;-85
2022/11/19 09:18:30;;;;;;;15.25;5.25;;;-0.20;99.90;;;;;;5119216;27;20046;-81
2022/11/19 09:20:56;;;;;;;15.63;5.47;;;-0.10;99.90;;;;;;5118531;27;20044;-81
2022/11/19 09:23:24;;;;;;;12.55;5.20;;;-0.10;99.90;;;;;;5136757;27;20046;-79
2022/11/19 09:25:56;;;;;;;15.20;5.53;;;-0.10;99.90;;;;;;5118695;27;20051;-82
2022/11/19 09:28:21;;;;;;;14.23;5.05;;;-0.10;99.90;;;;;;5117548;27;20066;-81
2022/11/19 09:31:01;;;;;;;10.55;4.57;;;0.00;99.90;;;;;;5102335;27;20047;-81
2022/11/19 09:33:29;;;;;;;12.65;4.97;;;0.10;99.90;;;;;;5137971;27;20403;-82
2022/11/19 09:35:55;;;;;;;11.48;4.72;;;0.20;99.90;;;;;;5137435;27;20069;-81
2022/11/19 09:38:21;;;;;;;13.25;5.18;;;0.20;99.90;;;;;;5120162;27;20133;-80
2022/11/19 09:40:53;;;;;;;11.65;4.47;;;0.20;99.90;;;;;;5122845;27;20053;-81
2022/11/19 09:43:24;;;;;;;12.52;4.07;;;0.30;99.90;;;;;;5143550;27;20042;-76
2022/11/19 09:46:17;;;;;;;12.82;5.13;;;0.40;99.90;;;;;;5143563;27;20054;-80
2022/11/19 09:48:44;;;;;;;12.77;5.78;;;0.40;99.90;;;;;;5140845;27;20108;-81
2022/11/19 09:51:12;;;;;;;15.23;6.43;;;0.40;99.90;;;;;;5121101;28;20092;-82
2022/11/19 09:53:55;;;;;;;9.88;4.18;;;0.40;99.90;;;;;;5137963;27;20079;-81
2022/11/19 09:56:50;;;;;;;15.75;5.07;;;0.50;99.90;;;;;;5138683;27;20047;-80
2022/11/19 09:59:26;;;;;;;16.38;5.28;;;0.60;99.90;;;;;;5136320;27;20051;-81
2022/11/19 10:01:53;;;;;;;12.38;5.22;;;0.70;99.90;;;;;;5107333;28;20054;-79
2022/11/19 10:04:30;;;;;;;;;;;0.70;99.90;;;;;;5147708;28;20039;-78
2022/11/19 10:07:17;;;;;;;13.00;4.78;;;0.70;99.90;;;;;;5151608;28;19920;-81
2022/11/19 10:09:53;;;;;;;12.45;5.05;;;0.80;99.90;;;;;;5150709;28;20058;-80
2022/11/19 10:12:30;;;;;;;12.20;4.28;;;0.80;99.90;;;;;;5140397;28;20043;-80
2022/11/19 10:15:13;;;;;;;10.82;4.32;;;0.80;99.90;;;;;;5119823;28;20379;-76
2022/11/19 10:17:52;;;;;;;12.43;3.88;;;0.80;99.90;;;;;;5120667;28;20047;-78
2022/11/19 10:20:24;;;;;;;12.23;3.50;;;0.90;99.90;;;;;;5120094;28;20506;-79
2022/11/19 10:22:55;;;;;;;11.77;4.93;;;1.00;99.90;;;;;;5103268;28;20471;-79
2022/11/19 10:25:26;;;;;;;12.18;4.63;;;1.80;99.90;;;;;;5138040;28;20043;-77
2022/11/19 10:28:12;;;;;;;11.00;4.40;;;1.00;99.90;;;;;;5136597;28;20061;-78
2022/11/19 10:30:40;;;;;;;11.82;5.40;;;1.10;99.90;;;;;;5121242;28;20053;-78
2022/11/19 10:33:42;;;;;;;11.25;4.30;;;1.10;99.90;;;;;;5135836;27;20059;-80
2022/11/19 10:36:30;;;;;;;10.90;4.78;;;1.10;99.90;;;;;;5118392;28;20129;-78
2022/11/19 10:39:03;;;;;;;9.77;4.13;;;1.10;99.90;;;;;;5137742;27;20084;-77
2022/11/19 10:41:44;;;;;;;11.18;4.28;;;1.20;99.90;;;;;;5142000;27;20051;-76
2022/11/19 10:44:40;;;;;;;12.73;4.82;;;1.30;99.90;;;;;;5141292;27;20039;-76
2022/11/19 10:47:36;;;;;;;14.00;5.18;;;1.30;99.90;;;;;;5142466;27;20410;-78
2022/11/19 10:50:02;;;;;;;14.37;5.17;;;1.40;99.90;;;;;;5086662;27;20105;-77
2022/11/19 10:52:33;;;;;;;12.07;4.70;;;1.40;99.90;;;;;;5123527;27;20043;-79
2022/11/19 10:55:31;;;;;;;12.70;5.45;;;1.40;99.90;;;;;;5125055;27;20065;-79
2022/11/19 10:58:12;;;;;;;11.00;4.30;;;1.50;99.90;;;;;;5124283;27;20487;-77
2022/11/19 11:00:40;;;;;;;11.13;4.25;;;1.50;99.90;;;;;;5146243;27;20051;-78
2022/11/19 11:03:22;;;;;;;10.90;4.70;;;1.60;99.90;;;;;;5129646;27;20111;-78
2022/11/19 11:05:56;;;;;;;11.85;3.92;;;1.60;99.90;;;;;;5152197;27;20098;-79
2022/11/19 11:08:22;;;;;;;12.07;4.82;;;1.60;99.90;;;;;;5136190;27;20058;-80
2022/11/19 11:10:50;;;;;;;10.98;4.20;;;1.60;99.90;;;;;;5136917;27;20079;-83
2022/11/19 11:16:46;;;;;;;11.40;5.30;;;1.60;99.90;;;;;;5137677;27;20050;-81
2022/11/19 11:19:20;;;;;;;11.85;4.70;;;1.70;99.90;;;;;;5135565;27;20043;-80
2022/11/19 11:21:51;;;;;;;13.55;5.85;;;1.80;99.90;;;;;;5153263;27;20039;-80
2022/11/19 11:24:18;;;;;;;9.02;3.95;;;1.70;99.90;;;;;;5148534;27;20117;-80
2022/11/19 11:26:43;;;;;;;11.77;4.67;;;1.90;99.90;;;;;;5125145;27;20093;-77
2022/11/19 11:29:12;;;;;;;11.52;4.28;;;1.90;99.90;;;;;;5129104;27;20039;-79
2022/11/19 11:31:43;;;;;;;10.63;4.35;;;1.90;99.90;;;;;;5149007;27;20374;-79
2022/11/19 11:34:30;;;;;;;10.38;4.15;;;2.00;99.90;;;;;;5123399;28;20066;-81
2022/11/19 11:36:57;;;;;;;9.60;4.03;;;1.90;99.90;;;;;;5124485;28;20423;-81
2022/11/19 11:39:33;;;;;;;;;;;2.00;99.90;;;;;;5129132;28;20039;-76
2022/11/19 11:42:00;;;;;;;12.00;4.35;;;2.00;99.90;;;;;;5127017;28;20321;-80
2022/11/19 11:44:32;;;;;;;8.85;3.33;;;2.10;99.90;;;;;;5128265;28;20066;-79
2022/11/19 11:46:59;;;;;;;10.65;3.78;;;2.10;99.90;;;;;;5127324;28;20364;-78
2022/11/19 11:49:33;;;;;;;8.25;3.10;;;2.10;99.90;;;;;;5126451;28;20047;-77
2022/11/19 11:52:08;;;;;;;8.15;3.42;;;2.10;99.90;;;;;;5126914;28;20039;-80
2022/11/19 11:54:52;;;;;;;10.13;3.80;;;2.20;99.90;;;;;;5126875;28;20047;-80
2022/11/19 11:57:22;;;;;;;8.70;4.00;;;2.20;99.90;;;;;;5125592;28;20364;-79
2022/11/19 11:59:48;;;;;;;10.98;4.22;;;2.20;99.90;;;;;;5121430;28;20479;-78
2022/11/19 12:02:34;;;;;;;8.90;3.50;;;2.30;99.90;;;;;;5122578;28;20062;-77
2022/11/19 12:05:16;;;;;;;8.10;3.38;;;2.30;99.90;;;;;;5117165;28;20341;-78
2022/11/19 12:08:06;;;;;;;8.40;3.65;;;2.30;99.90;;;;;;5120863;28;20166;-81
2022/11/19 12:10:38;;;;;;;8.15;3.33;;;2.40;99.90;;;;;;5119257;28;20047;-77
2022/11/19 12:13:18;;;;;;;8.13;3.50;;;2.30;99.90;;;;;;5121117;28;20039;-77
2022/11/19 12:16:03;;;;;;;9.32;3.00;;;2.30;99.90;;;;;;5118385;28;20075;-80
2022/11/19 12:18:59;;;;;;;8.25;3.20;;;2.40;99.90;;;;;;5119444;28;20127;-81
2022/11/19 12:21:54;;;;;;;8.68;3.35;;;2.40;99.90;;;;;;5117323;28;20135;-79
2022/11/19 12:24:33;;;;;;;6.50;2.13;;;2.40;99.90;;;;;;5117869;28;20069;-81
2022/11/19 12:27:06;;;;;;;8.15;2.95;;;2.40;99.90;;;;;;5117831;28;20368;-77
2022/11/19 12:29:56;;;;;;;10.90;4.28;;;2.40;99.90;;;;;;5118579;28;20528;-81
2022/11/19 12:32:41;;;;;;;8.30;3.60;;;2.40;99.90;;;;;;5120151;27;20063;-78
2022/11/19 12:35:09;;;;;;;9.20;3.42;;;2.50;99.90;;;;;;5137500;27;20086;-80
2022/11/19 12:38:17;;;;;;;7.78;3.33;;;2.40;99.90;;;;;;5139225;27;20103;-80
2022/11/19 12:41:04;;;;;;;9.77;3.78;;;2.40;99.90;;;;;;5121221;27;20051;-78
2022/11/19 12:43:41;;;;;;;;;;;2.40;99.90;;;;;;5139322;27;20057;-78
2022/11/19 12:46:33;;;;;;;7.43;3.17;;;2.40;99.90;;;;;;5120615;27;19919;-77
2022/11/19 12:49:20;;;;;;;8.05;3.17;;;2.40;99.90;;;;;;5120657;27;20076;-79
2022/11/19 12:52:02;;;;;;;8.25;3.53;;;2.40;99.90;;;;;;5122766;27;20053;-80
2022/11/19 12:54:43;;;;;;;8.98;3.65;;;2.40;99.90;;;;;;5140510;27;20043;-79
2022/11/19 12:57:35;;;;;;;9.38;2.60;;;2.40;99.90;;;;;;5143702;27;20050;-78
2022/11/19 13:00:18;;;;;;;8.45;3.63;;;2.50;99.90;;;;;;5145222;27;20073;-77
2022/11/19 13:02:47;;;;;;;8.02;3.40;;;2.60;99.90;;;;;;5115797;27;20128;-79
2022/11/19 13:05:18;;;;;;;8.70;3.20;;;2.50;99.90;;;;;;5143710;27;20127;-79
2022/11/19 13:08:03;;;;;;;9.20;3.63;;;2.50;99.90;;;;;;5121073;27;20385;-80
2022/11/19 13:10:37;;;;;;;12.00;3.42;;;2.60;99.90;;;;;;5139240;27;20043;-80
2022/11/19 13:13:06;;;;;;;8.80;3.97;;;2.60;99.90;;;;;;5140410;27;20043;-77
2022/11/19 13:15:44;;;;;;;9.13;3.20;;;2.60;99.90;;;;;;5141121;27;20138;-79
2022/11/19 13:18:15;;;;;;;7.57;3.33;;;2.50;99.90;;;;;;5126583;27;20047;-79
2022/11/19 13:20:56;;;;;;;8.05;3.88;;;2.60;99.90;;;;;;5142859;27;20047;-79
2022/11/19 13:23:36;;;;;;;8.25;3.67;;;2.50;99.90;;;;;;5122860;27;20057;-77
2022/11/19 13:26:24;;;;;;;7.95;3.17;;;2.60;99.90;;;;;;5104437;27;20049;-80